Huxford, AL (36543)

7:33 AM CDT on July 14, 2014 (GMT -0500)
B.E.C. (KALATMOR3) Elev 272 ft | 31.07 °N, 87.37 °W | Change Station

Current weather conditions updated 6 minutes ago

Clear
Clear
76.7 °F
Feels Like 77 °F
N
0.0
Wind Variable Wind from SSE
Gusts 0.0 mph

Today is forecast to be nearly the same temperature as yesterday. Thunderstorms developing in the afternoon.

Today
High -- | Low -- °F
--% Chance of Precip.
Yesterday
High -- | Low -- °F
Precip. -- in
5:55 AM 7:55 PM
Waning Gibbous, 94% visible
Pressure 30.08 in
Visibility 6.0 miles
Clouds Clear
Heat Index 77 °F
Dew Point 75 °F
Humidity 93%
Rainfall 0.00 in
Snow Depth Not available.
UV 1 out of 12
Pollen 2.90 out of 12
Air Quality Not available.
Flu Activity Sporadic
METAR KGZH 141153Z AUTO 00000KT 6SM BR CLR 23/22 A3009 RMK AO2 SLP184 T02330217 10244 20217 53012

More Conditions Fewer Conditions

Pressure 30.08 in
Visibility 6.0 miles
Clouds Clear
Heat Index 77 °F
Dew Point 75 °F
Humidity 93%
Rainfall 0.00 in
Snow Depth Not available.
UV 1 out of 12
Pollen 2.90 out of 12
Air Quality Not available.
Flu Activity Sporadic
METAR KGZH 141153Z AUTO 00000KT 6SM BR CLR 23/22 A3009 RMK AO2 SLP184 T02330217 10244 20217 53012

More Conditions Fewer Conditions

10-Day Weather Forecast

Almanac

Astronomy

Jul. 14, 2014 Rise Set
Actual Time 5:55 AM CDT 7:55 PM CDT
Civil Twilight 5:28 AM CDT 8:22 PM CDT
Nautical Twilight 4:55 AM CDT 8:55 PM CDT
Astronomical Twilight 4:19 AM CDT 9:31 PM CDT
Moon 9:40 PM CDT 8:25 AM CDT
Length of Visible Light 14h 54m
Length of Day
13h 59m
Tomorrow will be 0m 55s shorter.
Waning Gibbous, 94% of the Moon is Illuminated
Today
Waning Gibbous
Jul 18
Last Quarter
Jul 26
New
Aug 3
First Quarter
Aug 10
Full

Today's Extremes

State Highs State Lows

Community

WunderPhotos

Upload Photos

1,733,636 photos uploaded!

Nearby

Snow Depth

Station Depth Elevation
No new snow has been reported.

Earthquake Activity

City Distance Mag. Time & Date
No recent earthquake activity has been reported nearby.
Minimum magnitude displayed is 2.5.

Coastal Water Temperatures

Place Temperature
No Stations Reporting

Nearby Weather Stations

Station Location Temp. Heat Index Dew Point Humidity Wind Precip. Elev Updated Type
MesoWest PERDIDO RIV FARMS , Atmore, AL 71 °F - 70 °F 97% SSE  at  1 mph 0.00 in / hr 298 ft 6:00 AM CDT MADIS
B.E.C., Atmore, AL 76.7 °F 77 °F 75 °F 93% SSE  at  0.0 mph 0.00 in / hr 272 ft 7:27 AM CDT Normal
Perdue Hill, AL 75.7 °F 75 °F 74 °F 94% East  at  0.0 mph 0.00 in / hr 70 ft 7:30 AM CDT Normal

Show More Stations Show Fewer Stations